Time;durP1;ratioP1;P1;durP2;ratioP2;P2;SDS_P1;SDS_P2;PMS_P1;PMS_P2;Temp;Humidity;BMP_temperature;BMP_pressure;BME280_temperature;BME280_humidity;BME280_pressure;Samples;Min_cycle;Max_cycle;Signal;HPM_P1;HPM_P2
2022/01/24 00:01:35;;;;;;;11.57;8.13;;;;;;;;;;5071001;28;20048;-67
2022/01/24 00:04:02;;;;;;;11.85;8.43;;;;;;;;;;5053256;28;20406;-68
2022/01/24 00:06:30;;;;;;;10.68;7.20;;;;;;;;;;5036805;28;20044;-68
2022/01/24 00:08:56;;;;;;;12.40;8.00;;;;;;;;;;5053144;28;20051;-69
2022/01/24 00:11:27;;;;;;;10.18;7.40;;;;;;;;;;5070617;28;20051;-67
2022/01/24 00:14:40;;;;;;;10.75;7.80;;;6.40;99.90;;;;;;5056819;28;20089;-67
2022/01/24 00:17:04;;;;;;;11.35;7.78;;;;;;;;;;5091286;28;20405;-67
2022/01/24 00:27:45;;;;;;;9.77;6.93;;;;;;;;;;5073186;28;20051;-67
2022/01/24 00:30:11;;;;;;;10.68;7.20;;;;;;;;;;5072697;28;20498;-67
2022/01/24 00:32:37;;;;;;;9.65;6.60;;;;;;;;;;5073249;28;20405;-67
2022/01/24 00:35:03;;;;;;;8.90;6.65;;;;;;;;;;5073102;28;20040;-67
2022/01/24 00:37:32;;;;;;;12.45;7.50;;;;;;;;;;5072840;28;20078;-67
2022/01/24 00:39:58;;;;;;;8.90;6.13;;;;;;;;;;5090839;28;20413;-67
2022/01/24 00:55:38;;;;;;;11.23;6.65;;;6.20;99.90;;;;;;5072956;28;19933;-67
2022/01/24 00:58:04;;;;;;;8.27;6.15;;;;;;;;;;5090787;28;20040;-67
2022/01/24 01:00:30;;;;;;;8.45;6.60;;;6.20;99.90;;;;;;5072905;28;20051;-67
2022/01/24 01:02:56;;;;;;;9.43;6.45;;;6.20;99.90;;;;;;5072675;28;20089;-67
2022/01/24 01:05:39;;;;;;;10.77;5.85;;;;;;;;;;5072727;28;20090;-67
2022/01/24 01:18:48;;;;;;;9.48;5.90;;;;;;;;;;5070555;28;20094;-69
2022/01/24 01:21:15;;;;;;;9.60;5.13;;;;;;;;;;5070378;28;20098;-67
2022/01/24 01:23:51;;;;;;;8.25;5.30;;;6.30;99.90;;;;;;5072314;28;20040;-67
2022/01/24 01:28:46;;;;;;;8.45;5.70;;;;;;;;;;5056332;28;20106;-68
2022/01/24 01:31:23;;;;;;;7.53;5.20;;;;;;;;;;5040088;28;20494;-67
2022/01/24 01:34:02;;;;;;;7.50;5.35;;;;;;;;;;5076187;28;20119;-67
2022/01/24 01:37:03;;;;;;;8.10;5.30;;;;;;;;;;5076195;28;20069;-67
2022/01/24 01:55:38;;;;;;;6.72;5.13;;;;;;;;;;5075721;28;20039;-68
2022/01/24 01:58:05;;;;;;;5.70;4.45;;;6.10;99.90;;;;;;5071078;28;20051;-68
2022/01/24 02:00:31;;;;;;;8.07;5.18;;;;;;;;;;5075340;28;20044;-66
2022/01/24 02:02:57;;;;;;;8.57;5.63;;;;;;;;;;5075895;28;20039;-67
2022/01/24 02:05:23;;;;;;;6.78;5.13;;;;;;;;;;5059039;28;20047;-67
2022/01/24 02:07:51;;;;;;;5.85;4.20;;;;;;;;;;5076020;28;20048;-67
2022/01/24 02:10:18;;;;;;;8.18;5.18;;;;;;;;;;5058479;28;20516;-68
2022/01/24 02:12:44;;;;;;;7.93;4.93;;;;;;;;;;5075468;28;20075;-67
2022/01/24 02:15:12;;;;;;;7.03;4.63;;;6.10;99.90;;;;;;5075471;28;20121;-67
2022/01/24 02:18:04;;;;;;;7.57;5.25;;;;;;;;;;5075529;28;20036;-67
2022/01/24 02:23:21;;;;;;;8.25;5.20;;;6.10;99.90;;;;;;5075203;28;20085;-67
2022/01/24 02:25:47;;;;;;;;;;;;;;;;;;5075783;28;20100;-67
2022/01/24 02:28:15;;;;;;;6.22;4.63;;;6.20;99.90;;;;;;5093441;28;20444;-67
2022/01/24 02:33:19;;;;;;;8.32;5.18;;;6.00;99.90;;;;;;5093206;28;20093;-67
2022/01/24 02:35:45;;;;;;;6.97;4.78;;;6.00;99.90;;;;;;5092427;28;20502;-68
2022/01/24 02:49:12;;;;;;;9.40;6.40;;;;;;;;;;5072573;28;20041;-67
2022/01/24 02:51:47;;;;;;;8.55;5.63;;;;;;;;;;5072844;28;20561;-67
2022/01/24 02:54:24;;;;;;;8.23;5.63;;;5.90;99.90;;;;;;5072605;28;20040;-67
2022/01/24 02:56:50;;;;;;;7.95;5.72;;;;;;;;;;5054507;28;20107;-67
2022/01/24 02:59:16;;;;;;;7.97;5.82;;;6.00;99.90;;;;;;5072498;28;20036;-67
2022/01/24 03:01:44;;;;;;;7.35;5.57;;;5.90;99.90;;;;;;5054675;28;20512;-67
2022/01/24 03:04:10;;;;;;;6.40;4.97;;;;;;;;;;5071028;28;20225;-68
2022/01/24 03:06:36;;;;;;;8.88;5.78;;;;;;;;;;5092867;28;20058;-67
2022/01/24 03:09:03;;;;;;;10.75;6.30;;;;;;;;;;5074530;28;20122;-68
2022/01/24 03:11:50;;;;;;;11.55;6.85;;;;;;;;;;5074085;28;20055;-67
2022/01/24 03:14:15;;;;;;;8.07;5.80;;;;;;;;;;5092123;28;20068;-67
2022/01/24 03:16:41;;;;;;;10.60;5.75;;;6.10;99.90;;;;;;5074441;28;20036;-66
2022/01/24 03:19:07;;;;;;;9.85;6.43;;;6.10;99.90;;;;;;5074223;28;20093;-65
2022/01/24 03:21:33;;;;;;;8.35;6.10;;;;;;;;;;5074268;28;20040;-67
2022/01/24 03:23:59;;;;;;;9.68;6.57;;;;;;;;;;5092020;28;20119;-67
2022/01/24 03:26:25;;;;;;;8.95;6.72;;;;;;;;;;5074147;28;20046;-71
2022/01/24 03:28:51;;;;;;;10.30;6.97;;;;;;;;;;5074087;28;20039;-67
2022/01/24 03:31:16;;;;;;;9.40;6.82;;;5.80;99.90;;;;;;5073917;28;20044;-67
2022/01/24 03:33:42;;;;;;;10.27;6.85;;;;;;;;;;5092019;28;20123;-67
2022/01/24 03:36:08;;;;;;;9.35;6.53;;;;;;;;;;5056994;28;20089;-66
2022/01/24 03:38:34;;;;;;;11.15;6.97;;;;;;;;;;5073914;28;20127;-66
2022/01/24 03:41:00;;;;;;;10.05;7.15;;;;;;;;;;5091780;28;20083;-67
2022/01/24 03:43:26;;;;;;;9.75;6.47;;;;;;;;;;5073762;28;20143;-67
2022/01/24 03:46:12;;;;;;;8.93;6.65;;;;;;;;;;5092044;28;20040;-67
2022/01/24 03:48:47;;;;;;;10.57;7.45;;;;;;;;;;5073742;28;20056;-67
2022/01/24 03:51:14;;;;;;;11.25;7.25;;;;;;;;;;5073198;28;20075;-66
2022/01/24 03:53:40;;;;;;;10.48;6.97;;;;;;;;;;5091791;28;20027;-69
2022/01/24 03:56:07;;;;;;;10.43;7.57;;;;;;;;;;5073461;28;20097;-67
2022/01/24 03:58:33;;;;;;;10.52;7.25;;;5.70;99.90;;;;;;5056885;28;20071;-67
2022/01/24 04:00:59;;;;;;;11.05;7.55;;;;;;;;;;5072964;28;20488;-69
2022/01/24 04:03:24;;;;;;;10.18;7.03;;;;;;;;;;5073132;28;20346;-69
2022/01/24 04:05:51;;;;;;;12.45;7.97;;;;;;;;;;5057098;28;20370;-66
2022/01/24 04:08:17;;;;;;;10.73;7.47;;;;;;;;;;5073358;28;20051;-69
2022/01/24 04:10:50;;;;;;;10.15;6.97;;;;;;;;;;5072957;28;20226;-68
2022/01/24 04:13:33;;;;;;;13.10;7.70;;;5.90;99.90;;;;;;5073570;28;20119;-67
2022/01/24 04:21:23;;;;;;;14.73;8.38;;;;;;;;;;5052844;28;20570;-66
2022/01/24 04:24:06;;;;;;;14.52;8.73;;;6.00;99.90;;;;;;5053290;28;20062;-66
2022/01/24 04:26:33;;;;;;;11.73;7.82;;;5.80;99.90;;;;;;5053216;28;20072;-67
2022/01/24 04:28:59;;;;;;;11.25;7.45;;;;;;;;;;5053077;28;20051;-67
2022/01/24 04:31:26;;;;;;;12.30;8.23;;;;;;;;;;5036321;28;20040;-67
2022/01/24 04:33:52;;;;;;;15.77;8.90;;;;;;;;;;5055594;28;20075;-67
2022/01/24 04:36:19;;;;;;;14.07;8.80;;;;;;;;;;5073112;28;20093;-66
2022/01/24 04:38:45;;;;;;;13.32;7.88;;;;;;;;;;5073470;28;20082;-69
2022/01/24 04:41:21;;;;;;;12.18;7.95;;;;;;;;;;5056066;28;20052;-67
2022/01/24 04:44:00;;;;;;;14.13;8.02;;;;;;;;;;5073186;28;20043;-69
2022/01/24 04:46:44;;;;;;;14.05;8.70;;;;;;;;;;5073156;28;20044;-68
2022/01/24 04:56:56;;;;;;;11.57;8.00;;;;;;;;;;5067040;28;20055;-68
2022/01/24 04:59:22;;;;;;;14.60;7.85;;;;;;;;;;5075823;28;20043;-67
2022/01/24 05:01:48;;;;;;;13.80;7.70;;;;;;;;;;5094887;28;20036;-67
2022/01/24 05:04:14;;;;;;;11.80;7.60;;;;;;;;;;5076944;28;20081;-68
2022/01/24 05:06:40;;;;;;;14.00;8.32;;;;;;;;;;5095139;28;20071;-69
2022/01/24 05:09:07;;;;;;;12.50;8.23;;;;;;;;;;5094847;28;20410;-67
2022/01/24 05:11:48;;;;;;;13.15;7.63;;;5.80;99.90;;;;;;5076724;28;20134;-67
2022/01/24 05:25:22;;;;;;;14.65;8.13;;;;;;;;;;5050602;28;20102;-67
2022/01/24 05:27:48;;;;;;;11.90;7.22;;;;;;;;;;5056719;28;20036;-67
2022/01/24 05:30:14;;;;;;;13.20;8.23;;;;;;;;;;5073581;28;20041;-66
2022/01/24 05:32:40;;;;;;;12.55;8.35;;;5.90;99.90;;;;;;5074174;28;20044;-67
2022/01/24 05:35:06;;;;;;;13.77;7.80;;;;;;;;;;5052744;28;20508;-67
2022/01/24 05:37:32;;;;;;;12.45;8.30;;;;;;;;;;5094726;28;20071;-66
2022/01/24 05:39:58;;;;;;;13.05;7.57;;;;;;;;;;5075721;28;20044;-67
2022/01/24 05:42:24;;;;;;;12.32;8.57;;;;;;;;;;5076093;28;20509;-66
2022/01/24 05:44:50;;;;;;;14.43;8.57;;;;;;;;;;5075915;28;20044;-67
2022/01/24 05:47:17;;;;;;;13.98;7.95;;;;;;;;;;5075799;28;20455;-67
2022/01/24 05:49:42;;;;;;;13.30;8.38;;;5.80;99.90;;;;;;5058761;28;20043;-66
2022/01/24 05:52:09;;;;;;;13.60;8.48;;;5.80;99.90;;;;;;5075907;28;20088;-67
2022/01/24 05:54:39;;;;;;;13.10;8.15;;;;;;;;;;5059142;28;20036;-67
2022/01/24 05:57:05;;;;;;;16.02;9.15;;;;;;;;;;5075712;28;20036;-67
2022/01/24 05:59:31;;;;;;;13.63;9.23;;;;;;;;;;5075054;28;20036;-68
2022/01/24 06:01:57;;;;;;;12.43;8.45;;;;;;;;;;5075571;28;20067;-67
2022/01/24 06:04:23;;;;;;;14.38;8.75;;;;;;;;;;5058877;28;20563;-67
2022/01/24 06:06:49;;;;;;;14.23;9.30;;;;;;;;;;5094172;28;20122;-67
2022/01/24 06:09:15;;;;;;;15.95;9.30;;;;;;;;;;5074542;28;20115;-67
2022/01/24 06:11:43;;;;;;;17.35;8.88;;;;;;;;;;5075256;28;20040;-70
2022/01/24 06:14:09;;;;;;;15.73;9.60;;;;;;;;;;5075533;28;20506;-67
2022/01/24 06:16:35;;;;;;;15.02;9.18;;;;;;;;;;5093452;28;20036;-66
2022/01/24 06:19:01;;;;;;;14.07;9.07;;;;;;;;;;5075249;28;20072;-66
2022/01/24 06:21:26;;;;;;;15.35;8.93;;;;;;;;;;5075581;28;20050;-67
2022/01/24 06:23:52;;;;;;;15.18;10.10;;;;;;;;;;5075253;28;20430;-68
2022/01/24 06:26:19;;;;;;;13.07;9.07;;;;;;;;;;5075453;28;20404;-67
2022/01/24 06:28:45;;;;;;;14.30;8.88;;;;;;;;;;5093446;28;20036;-67
2022/01/24 06:31:11;;;;;;;15.25;9.45;;;;;;;;;;5074446;28;20105;-68
2022/01/24 06:33:37;;;;;;;15.25;9.80;;;;;;;;;;5074929;28;20524;-68
2022/01/24 06:36:03;;;;;;;16.52;10.20;;;;;;;;;;5093390;28;20169;-69
2022/01/24 06:38:29;;;;;;;18.65;10.38;;;;;;;;;;5093423;28;20059;-68
2022/01/24 06:40:55;;;;;;;14.50;9.40;;;;;;;;;;5057606;28;20116;-69
2022/01/24 06:43:21;;;;;;;13.00;8.80;;;;;;;;;;5074339;28;20047;-70
2022/01/24 06:45:47;;;;;;;13.25;8.55;;;;;;;;;;5058040;28;20417;-68
2022/01/24 06:48:13;;;;;;;17.15;9.52;;;;;;;;;;5074920;28;20087;-67
2022/01/24 06:50:39;;;;;;;16.77;10.05;;;;;;;;;;5085727;28;20558;-69
2022/01/24 06:53:06;;;;;;;15.05;10.00;;;;;;;;;;5082131;28;20044;-67
2022/01/24 06:55:32;;;;;;;14.80;9.63;;;;;;;;;;5071709;28;20032;-68
2022/01/24 06:57:58;;;;;;;19.58;10.57;;;;;;;;;;5090049;28;20040;-68
2022/01/24 07:00:29;;;;;;;16.40;9.73;;;5.70;99.90;;;;;;5070770;28;20446;-67
2022/01/24 07:02:56;;;;;;;13.35;9.02;;;;;;;;;;5089490;28;20135;-67
2022/01/24 07:05:22;;;;;;;15.90;9.50;;;;;;;;;;5071519;28;20070;-67
2022/01/24 07:07:48;;;;;;;15.50;9.80;;;;;;;;;;5071245;28;20066;-67
2022/01/24 07:10:14;;;;;;;16.85;9.90;;;;;;;;;;5071105;28;20461;-67
2022/01/24 07:12:41;;;;;;;13.27;9.05;;;;;;;;;;5089328;28;20417;-67
2022/01/24 07:15:11;;;;;;;17.33;9.80;;;;;;;;;;5070947;28;20036;-70
2022/01/24 07:20:21;;;;;;;17.25;10.80;;;5.80;99.90;;;;;;5088849;28;20168;-67
2022/01/24 07:22:47;;;;;;;16.70;9.65;;;;;;;;;;5089183;28;20048;-66
2022/01/24 07:25:13;;;;;;;18.67;11.10;;;;;;;;;;5089238;28;20044;-66
2022/01/24 07:27:39;;;;;;;17.80;10.90;;;;;;;;;;5070086;28;20096;-66
2022/01/24 07:30:05;;;;;;;17.73;11.43;;;5.70;99.90;;;;;;5052584;28;20058;-66
2022/01/24 07:32:32;;;;;;;22.17;10.75;;;;;;;;;;5058568;28;20040;-68
2022/01/24 07:34:58;;;;;;;19.05;12.20;;;;;;;;;;5062661;28;20040;-67
2022/01/24 07:37:25;;;;;;;17.13;10.88;;;;;;;;;;5089208;28;20035;-69
2022/01/24 07:39:53;;;;;;;17.05;10.60;;;5.90;99.90;;;;;;5088237;28;20040;-70
2022/01/24 07:42:29;;;;;;;18.42;10.60;;;;;;;;;;5084831;28;20032;-67
2022/01/24 07:44:55;;;;;;;16.20;10.32;;;;;;;;;;5061111;28;20047;-68
2022/01/24 07:47:22;;;;;;;20.95;11.95;;;;;;;;;;5077475;28;20052;-66
2022/01/24 07:49:47;;;;;;;22.15;12.00;;;;;;;;;;5057999;28;20029;-68
2022/01/24 07:52:13;;;;;;;20.40;11.82;;;;;;;;;;5050231;28;20038;-68
2022/01/24 07:54:39;;;;;;;17.90;10.52;;;;;;;;;;5050136;28;20064;-68
2022/01/24 07:57:05;;;;;;;19.15;11.93;;;;;;;;;;5053800;28;20024;-68
2022/01/24 07:59:31;;;;;;;19.90;12.38;;;;;;;;;;5061833;28;20406;-66
2022/01/24 08:01:57;;;;;;;23.25;12.88;;;;;;;;;;5074653;28;20040;-67
2022/01/24 08:04:23;;;;;;;20.33;12.40;;;;;;;;;;5081380;28;20062;-67
2022/01/24 08:06:49;;;;;;;22.45;13.32;;;;;;;;;;5080291;28;20039;-67
2022/01/24 08:09:15;;;;;;;20.52;12.68;;;;;;;;;;5070252;28;20044;-68
2022/01/24 08:11:43;;;;;;;21.95;12.70;;;;;;;;;;5085358;28;20054;-66
2022/01/24 08:14:09;;;;;;;23.27;12.77;;;;;;;;;;5064720;28;20093;-67
2022/01/24 08:16:37;;;;;;;24.02;14.13;;;;;;;;;;5069924;28;20071;-66
2022/01/24 08:19:03;;;;;;;22.70;13.95;;;;;;;;;;5058778;28;20056;-67
2022/01/24 08:21:29;;;;;;;23.80;14.07;;;;;;;;;;5033109;28;20536;-68
2022/01/24 08:23:56;;;;;;;23.23;13.55;;;;;;;;;;5032868;28;20040;-68
2022/01/24 08:26:22;;;;;;;23.77;14.10;;;;;;;;;;5050067;28;20370;-67
2022/01/24 08:28:48;;;;;;;24.10;14.88;;;;;;;;;;5052631;28;20501;-68
2022/01/24 08:31:14;;;;;;;24.63;14.75;;;6.00;99.90;;;;;;5070177;28;20040;-67
2022/01/24 08:33:40;;;;;;;23.75;13.95;;;;;;;;;;5054169;28;20047;-68
2022/01/24 08:36:06;;;;;;;23.67;14.25;;;;;;;;;;5072696;28;20039;-69
2022/01/24 08:38:35;;;;;;;22.98;14.15;;;;;;;;;;5055294;28;20032;-69
2022/01/24 08:41:07;;;;;;;26.00;14.95;;;;;;;;;;5072919;28;20088;-67
2022/01/24 08:43:40;;;;;;;27.85;16.15;;;;;;;;;;5072871;28;20044;-67
2022/01/24 08:46:06;;;;;;;25.80;16.08;;;;;;;;;;5072885;28;20047;-67
2022/01/24 08:48:32;;;;;;;22.33;14.85;;;;;;;;;;5073332;28;20398;-67
2022/01/24 08:50:59;;;;;;;25.30;15.07;;;6.00;99.90;;;;;;5091134;28;20040;-67
2022/01/24 08:53:30;;;;;;;23.50;15.20;;;6.00;99.90;;;;;;5072872;28;20040;-68
2022/01/24 08:55:56;;;;;;;22.95;13.75;;;;;;;;;;5073003;28;20077;-67
2022/01/24 08:58:24;;;;;;;28.30;16.00;;;5.80;99.90;;;;;;5072524;28;20496;-67
2022/01/24 09:00:50;;;;;;;28.65;16.15;;;;;;;;;;5071185;28;20122;-68
2022/01/24 09:03:16;;;;;;;23.90;15.02;;;;;;;;;;5071627;28;20407;-69
2022/01/24 09:05:42;;;;;;;24.40;15.45;;;;;;;;;;5072099;28;20072;-68
2022/01/24 09:08:09;;;;;;;23.77;14.68;;;;;;;;;;5072350;28;20040;-68
2022/01/24 09:10:38;;;;;;;23.52;14.70;;;;;;;;;;5072271;28;20048;-67
2022/01/24 09:13:04;;;;;;;24.48;14.75;;;6.00;99.90;;;;;;5072894;28;20044;-69
2022/01/24 09:15:30;;;;;;;24.58;15.80;;;;;;;;;;5065558;28;20032;-68
2022/01/24 09:17:56;;;;;;;21.92;15.00;;;;;;;;;;5072060;28;20128;-69
2022/01/24 09:20:22;;;;;;;24.63;16.50;;;;;;;;;;5055600;28;20506;-67
2022/01/24 09:22:49;;;;;;;25.55;14.57;;;6.00;99.90;;;;;;5072716;28;20040;-67
2022/01/24 09:25:17;;;;;;;24.45;15.15;;;6.10;99.90;;;;;;5072517;28;20123;-69
2022/01/24 09:27:44;;;;;;;27.08;16.50;;;6.00;99.90;;;;;;5072204;28;20117;-67
2022/01/24 09:30:11;;;;;;;23.90;15.25;;;6.10;99.90;;;;;;5072298;28;20490;-67
2022/01/24 09:32:37;;;;;;;27.20;15.90;;;;;;;;;;5072283;28;20047;-66
2022/01/24 09:35:07;;;;;;;30.02;18.13;;;;;;;;;;5070761;28;20520;-68
2022/01/24 09:37:34;;;;;;;26.08;15.65;;;;;;;;;;5071233;28;20032;-66
2022/01/24 09:40:00;;;;;;;32.25;19.38;;;;;;;;;;5099995;22;20054;-74
2022/01/24 09:42:26;;;;;;;25.77;15.23;;;6.20;99.90;;;;;;5074089;28;20043;-75
2022/01/24 09:44:53;;;;;;;27.30;15.93;;;;;;;;;;5094315;28;20051;-74
2022/01/24 09:47:19;;;;;;;29.65;17.83;;;6.00;99.90;;;;;;5114210;28;20123;-73
2022/01/24 09:49:46;;;;;;;26.05;15.88;;;;;;;;;;5079886;28;20121;-74
2022/01/24 09:52:12;;;;;;;29.63;16.88;;;;;;;;;;5077226;28;20063;-75
2022/01/24 09:54:39;;;;;;;24.40;15.90;;;;;;;;;;5076675;28;20490;-77
2022/01/24 09:57:05;;;;;;;23.75;15.32;;;;;;;;;;5076395;28;20089;-77
2022/01/24 09:59:32;;;;;;;25.60;15.77;;;;;;;;;;5059686;28;20044;-77
2022/01/24 10:01:58;;;;;;;24.77;15.68;;;;;;;;;;5060090;28;20131;-76
2022/01/24 10:04:25;;;;;;;26.25;15.65;;;6.00;99.90;;;;;;5076450;28;20040;-76
2022/01/24 10:06:56;;;;;;;26.20;16.23;;;;;;;;;;5076497;28;20067;-77
2022/01/24 10:09:48;;;;;;;28.75;16.85;;;5.90;99.90;;;;;;5075736;28;20122;-76
2022/01/24 10:17:52;;;;;;;27.13;16.95;;;;;;;;;;5075872;28;20055;-76
2022/01/24 10:20:20;;;;;;;24.27;15.57;;;;;;;;;;5076444;28;20135;-75
2022/01/24 10:23:05;;;;;;;27.08;16.98;;;;;;;;;;5080753;28;20044;-77
2022/01/24 10:25:31;;;;;;;31.13;17.88;;;;;;;;;;5078735;28;20062;-77
2022/01/24 10:28:03;;;;;;;31.75;17.38;;;6.30;99.90;;;;;;5078337;28;20548;-77
2022/01/24 10:30:31;;;;;;;32.22;19.33;;;;;;;;;;5059640;28;20165;-77
2022/01/24 10:32:59;;;;;;;30.05;17.13;;;;;;;;;;5077407;28;20030;-77
2022/01/24 10:35:37;;;;;;;32.75;18.75;;;;;;;;;;5077541;28;20040;-77
2022/01/24 10:38:26;;;;;;;36.53;19.50;;;;;;;;;;5095262;28;20044;-77
2022/01/24 10:41:08;;;;;;;33.90;19.00;;;6.20;99.90;;;;;;5060745;28;20044;-77
2022/01/24 10:43:38;;;;;;;32.95;19.23;;;6.20;99.90;;;;;;5079498;28;20058;-77
2022/01/24 10:46:05;;;;;;;34.17;20.15;;;6.20;99.90;;;;;;5087825;28;20059;-77
2022/01/24 10:48:34;;;;;;;32.92;18.77;;;6.30;99.90;;;;;;5088977;28;20071;-77
2022/01/24 10:51:18;;;;;;;40.47;22.38;;;6.20;99.90;;;;;;5069608;28;20040;-77
2022/01/24 10:53:52;;;;;;;38.25;21.58;;;;;;;;;;5086830;28;20119;-77
2022/01/24 10:56:37;;;;;;;36.47;22.17;;;6.00;99.90;;;;;;5082938;28;20043;-77
2022/01/24 10:59:03;;;;;;;37.13;21.15;;;;;;;;;;5061685;28;20107;-77
2022/01/24 11:01:30;;;;;;;37.83;20.95;;;;;;;;;;5061609;28;20071;-77
2022/01/24 11:04:00;;;;;;;39.45;22.30;;;;;;;;;;5077021;28;20195;-77
2022/01/24 11:06:30;;;;;;;38.05;21.23;;;6.20;99.90;;;;;;5074701;28;20046;-76
2022/01/24 11:09:21;;;;;;;36.60;20.52;;;6.20;99.90;;;;;;5059875;28;20521;-77
2022/01/24 11:11:50;;;;;;;37.80;20.45;;;;;;;;;;5073891;28;20040;-77
2022/01/24 11:14:18;;;;;;;35.63;19.33;;;;;;;;;;5073719;28;20101;-77
2022/01/24 11:16:44;;;;;;;30.08;18.80;;;6.10;99.90;;;;;;5058996;28;20063;-78
2022/01/24 11:19:27;;;;;;;31.10;18.02;;;;;;;;;;5076704;28;20032;-77
2022/01/24 11:21:54;;;;;;;30.83;18.30;;;6.20;99.90;;;;;;5059507;28;20086;-78
2022/01/24 11:24:27;;;;;;;32.42;19.17;;;;;;;;;;5073440;28;20040;-76
2022/01/24 11:26:53;;;;;;;31.95;18.35;;;;;;;;;;5050958;28;20047;-77
2022/01/24 11:29:19;;;;;;;30.15;18.00;;;;;;;;;;5034387;28;20106;-77
2022/01/24 11:32:06;;;;;;;36.83;19.80;;;;;;;;;;5051497;28;20094;-77
2022/01/24 11:34:36;;;;;;;31.92;18.35;;;;;;;;;;5002007;28;20071;-77
2022/01/24 11:37:03;;;;;;;37.55;20.88;;;;;;;;;;5034796;28;20044;-75
2022/01/24 11:39:28;;;;;;;35.20;19.83;;;;;;;;;;5034473;28;20040;-74
2022/01/24 11:41:55;;;;;;;34.30;19.90;;;;;;;;;;5053198;28;20100;-75
2022/01/24 11:44:22;;;;;;;35.45;19.85;;;;;;;;;;5070344;28;20067;-75
2022/01/24 11:46:59;;;;;;;35.75;18.92;;;;;;;;;;5068723;28;20075;-76
2022/01/24 11:49:27;;;;;;;35.17;19.85;;;;;;;;;;5053881;28;20072;-78
2022/01/24 11:52:14;;;;;;;35.05;19.80;;;6.30;99.90;;;;;;5074919;28;20104;-78
2022/01/24 11:57:34;;;;;;;37.30;19.88;;;6.40;99.90;;;;;;5077483;28;20048;-79
2022/01/24 12:00:06;;;;;;;33.40;18.13;;;6.40;99.90;;;;;;5058806;28;20079;-76
2022/01/24 12:02:49;;;;;;;31.50;17.95;;;;;;;;;;5076763;28;20040;-77
2022/01/24 12:05:31;;;;;;;33.05;18.27;;;;;;;;;;5073906;28;20136;-75
2022/01/24 12:08:07;;;;;;;33.28;18.83;;;;;;;;;;5050094;28;20047;-75
2022/01/24 12:13:19;;;;;;;34.78;18.90;;;6.70;99.90;;;;;;5063209;28;20079;-77
2022/01/24 12:15:48;;;;;;;30.88;17.48;;;;;;;;;;5045691;28;20041;-76
2022/01/24 12:18:28;;;;;;;29.88;17.00;;;6.30;99.90;;;;;;5056177;28;20085;-77
2022/01/24 12:20:54;;;;;;;30.60;17.45;;;;;;;;;;5070852;28;20066;-77
2022/01/24 12:23:24;;;;;;;32.75;18.40;;;;;;;;;;5054439;28;20043;-77
2022/01/24 12:25:54;;;;;;;30.25;17.13;;;;;;;;;;5050683;28;20690;-77
2022/01/24 12:28:25;;;;;;;28.75;16.70;;;;;;;;;;5070858;28;20047;-76
2022/01/24 12:31:02;;;;;;;30.00;16.90;;;;;;;;;;5072365;28;20040;-77
2022/01/24 12:33:38;;;;;;;33.67;18.83;;;;;;;;;;5073404;28;22138;-77
2022/01/24 12:36:10;;;;;;;32.47;17.90;;;;;;;;;;5056501;28;20119;-77
2022/01/24 12:38:51;;;;;;;34.95;18.73;;;6.40;99.90;;;;;;5073802;28;20396;-77
2022/01/24 12:41:18;;;;;;;31.67;17.42;;;6.30;99.90;;;;;;5074266;28;20123;-76
2022/01/24 12:46:28;;;;;;;33.70;17.85;;;;;;;;;;5073423;28;20044;-77
2022/01/24 12:48:56;;;;;;;33.47;18.48;;;6.40;99.90;;;;;;5056825;28;20501;-76
2022/01/24 12:51:27;;;;;;;34.65;18.27;;;6.40;99.90;;;;;;5056661;28;20046;-76
2022/01/24 12:53:53;;;;;;;28.23;16.15;;;;;;;;;;5073507;28;20093;-77
2022/01/24 12:56:27;;;;;;;30.17;17.10;;;6.30;99.90;;;;;;5073151;28;20089;-76
2022/01/24 12:58:53;;;;;;;34.05;17.63;;;;;;;;;;5055506;28;20051;-75
2022/01/24 13:01:20;;;;;;;33.42;17.75;;;;;;;;;;5073401;28;20052;-77
2022/01/24 13:03:58;;;;;;;33.78;18.02;;;;;;;;;;5073085;28;20044;-76
2022/01/24 13:06:25;;;;;;;32.42;18.52;;;;;;;;;;5073589;28;20093;-76
2022/01/24 13:08:52;;;;;;;35.60;17.83;;;;;;;;;;5073131;28;20036;-75
2022/01/24 13:11:18;;;;;;;33.28;17.63;;;;;;;;;;5056483;28;20051;-76
2022/01/24 13:14:01;;;;;;;33.47;18.10;;;;;;;;;;5073434;28;20494;-77
2022/01/24 13:22:42;;;;;;;32.83;17.70;;;;;;;;;;5060130;28;20515;-77
2022/01/24 13:25:16;;;;;;;32.10;17.17;;;;;;;;;;5061726;28;20703;-77
2022/01/24 13:28:02;;;;;;;33.63;19.42;;;;;;;;;;5041646;28;20051;-76
2022/01/24 13:30:34;;;;;;;34.90;20.38;;;;;;;;;;5056597;28;20086;-77
2022/01/24 13:33:05;;;;;;;36.88;19.98;;;6.50;99.90;;;;;;5057235;28;20075;-77
2022/01/24 13:35:33;;;;;;;34.60;18.13;;;;;;;;;;5057026;28;20036;-77
2022/01/24 13:38:06;;;;;;;35.13;18.63;;;6.30;99.90;;;;;;5056708;28;20044;-77
2022/01/24 13:40:35;;;;;;;33.58;18.42;;;;;;;;;;5056485;28;20040;-77
2022/01/24 13:43:01;;;;;;;36.92;18.95;;;;;;;;;;5056582;28;20128;-78
2022/01/24 13:45:27;;;;;;;34.88;18.75;;;;;;;;;;5056862;28;20040;-77
2022/01/24 13:48:02;;;;;;;32.28;17.90;;;6.10;99.90;;;;;;5059452;28;20049;-77
2022/01/24 13:50:28;;;;;;;32.30;17.63;;;;;;;;;;5058276;28;20040;-77
2022/01/24 13:52:54;;;;;;;32.00;17.65;;;6.30;99.90;;;;;;5056551;28;20498;-77
2022/01/24 13:55:22;;;;;;;34.47;18.23;;;;;;;;;;5056391;28;20440;-77
2022/01/24 13:57:51;;;;;;;36.20;18.92;;;6.20;99.90;;;;;;5056313;28;20060;-77
2022/01/24 14:00:22;;;;;;;33.28;17.67;;;;;;;;;;5056137;28;20093;-77
2022/01/24 14:02:48;;;;;;;32.13;19.13;;;;;;;;;;5076093;28;20044;-77
2022/01/24 14:05:15;;;;;;;32.97;19.67;;;6.30;99.90;;;;;;5075790;28;20036;-77
2022/01/24 14:07:43;;;;;;;35.60;19.67;;;;;;;;;;5076271;28;20040;-77
2022/01/24 14:10:12;;;;;;;33.28;18.85;;;6.30;99.90;;;;;;5076062;28;20087;-78
2022/01/24 14:12:46;;;;;;;35.15;18.60;;;6.20;99.90;;;;;;5076353;28;20086;-77
2022/01/24 14:15:21;;;;;;;32.85;19.35;;;6.30;99.90;;;;;;5072496;28;20044;-77
2022/01/24 14:18:22;;;;;;;34.53;18.67;;;;;;;;;;5074515;28;20032;-77
2022/01/24 14:20:51;;;;;;;35.75;18.15;;;6.10;99.90;;;;;;5059871;28;20051;-77
2022/01/24 14:23:32;;;;;;;31.20;17.15;;;6.30;99.90;;;;;;5076131;28;20405;-77
2022/01/24 14:25:58;;;;;;;30.17;17.73;;;;;;;;;;5075855;28;20040;-77
2022/01/24 14:28:26;;;;;;;34.55;18.98;;;;;;;;;;5076019;28;20044;-77
2022/01/24 14:30:55;;;;;;;29.65;17.00;;;;;;;;;;5057647;28;20051;-77
2022/01/24 14:33:30;;;;;;;39.40;19.70;;;6.10;99.90;;;;;;5075746;28;20509;-77
2022/01/24 14:36:12;;;;;;;35.35;18.38;;;6.10;99.90;;;;;;5075662;28;20059;-76
2022/01/24 14:38:43;;;;;;;31.20;18.35;;;;;;;;;;5074723;28;20039;-76
2022/01/24 14:41:18;;;;;;;33.17;17.80;;;6.20;99.90;;;;;;5074981;28;20044;-77
2022/01/24 14:46:33;;;;;;;34.05;19.23;;;5.90;99.90;;;;;;5074587;28;20558;-77
2022/01/24 14:48:59;;;;;;;33.72;19.30;;;;;;;;;;5074877;28;20521;-76
2022/01/24 14:51:28;;;;;;;32.75;18.83;;;;;;;;;;5074790;28;20131;-77
2022/01/24 14:53:56;;;;;;;35.03;19.27;;;;;;;;;;5057042;28;20040;-76
2022/01/24 14:56:23;;;;;;;31.58;18.27;;;6.00;99.90;;;;;;5075431;28;20032;-77
2022/01/24 14:58:49;;;;;;;37.85;21.67;;;;;;;;;;5075748;28;20079;-77
2022/01/24 15:01:15;;;;;;;33.53;19.77;;;;;;;;;;5077946;28;20400;-76
2022/01/24 15:03:42;;;;;;;34.38;18.60;;;;;;;;;;5058380;28;20044;-77
2022/01/24 15:06:09;;;;;;;36.90;21.98;;;;;;;;;;5075041;28;20466;-77
2022/01/24 15:08:35;;;;;;;38.33;19.83;;;6.00;99.90;;;;;;5075143;28;20040;-77
2022/01/24 15:11:01;;;;;;;34.42;18.50;;;;;;;;;;5057692;28;20040;-76
2022/01/24 15:13:35;;;;;;;34.35;20.17;;;;;;;;;;5058488;28;20032;-76
2022/01/24 15:16:13;;;;;;;33.42;18.98;;;;;;;;;;5043427;28;20119;-77
2022/01/24 15:26:45;;;;;;;34.25;18.98;;;5.90;99.90;;;;;;5058820;28;20412;-76
2022/01/24 15:29:11;;;;;;;35.35;19.58;;;;;;;;;;5057908;28;20127;-77
2022/01/24 15:31:37;;;;;;;36.45;20.08;;;;;;;;;;5057259;28;20044;-77
2022/01/24 15:34:03;;;;;;;36.08;19.95;;;;;;;;;;5074152;28;20040;-76
2022/01/24 15:36:29;;;;;;;38.08;19.83;;;;;;;;;;5057523;28;20123;-77
2022/01/24 15:38:59;;;;;;;36.20;19.40;;;;;;;;;;5097179;22;20023;-70
2022/01/24 15:41:25;;;;;;;43.00;21.35;;;;;;;;;;5093912;28;20078;-71
2022/01/24 15:48:46;;;;;;;41.05;22.35;;;;;;;;;;5094037;28;20158;-68
2022/01/24 15:51:12;;;;;;;37.45;20.15;;;;;;;;;;5093305;28;20131;-70
2022/01/24 15:53:38;;;;;;;41.25;21.75;;;;;;;;;;5112526;28;20100;-71
2022/01/24 15:56:16;;;;;;;39.63;20.88;;;5.80;99.90;;;;;;5111470;28;20039;-69
2022/01/24 15:58:42;;;;;;;44.85;22.35;;;;;;;;;;5112170;28;20047;-69
2022/01/24 16:01:08;;;;;;;40.70;21.02;;;;;;;;;;5087602;28;20409;-69
2022/01/24 16:03:34;;;;;;;36.95;20.80;;;;;;;;;;5080152;28;20050;-66
2022/01/24 16:06:00;;;;;;;38.97;21.60;;;5.90;99.90;;;;;;5093396;28;20107;-68
2022/01/24 16:08:26;;;;;;;36.92;19.33;;;;;;;;;;5111821;28;20036;-68
2022/01/24 16:10:52;;;;;;;42.05;22.25;;;;;;;;;;5092983;28;20433;-68
2022/01/24 16:13:20;;;;;;;41.15;22.65;;;;;;;;;;5093496;28;20044;-68
2022/01/24 16:15:46;;;;;;;37.95;20.88;;;5.90;99.90;;;;;;5080768;28;20044;-69
2022/01/24 16:18:15;;;;;;;38.80;20.85;;;;;;;;;;5073200;28;20036;-68